createdAt,value
2022-09-23T00:01:15.650Z,7.18
2022-09-23T00:03:48.672Z,6.43
2022-09-23T00:06:19.595Z,6.18
2022-09-23T00:08:48.860Z,6.13
2022-09-23T00:11:24.086Z,5.78
2022-09-23T00:13:58.271Z,6.22
2022-09-23T00:16:34.529Z,5.05
2022-09-23T00:19:03.780Z,4.90
2022-09-23T00:21:30.733Z,6.28
2022-09-23T00:23:57.566Z,4.85
2022-09-23T00:26:25.718Z,4.50
2022-09-23T00:28:52.821Z,4.40
2022-09-23T00:31:25.936Z,4.85
2022-09-23T00:33:58.886Z,4.60
2022-09-23T00:36:28.058Z,4.40
2022-09-23T00:38:55.953Z,4.70
2022-09-23T00:41:23.407Z,3.33
2022-09-23T00:43:56.662Z,3.78
2022-09-23T00:46:41.288Z,4.60
2022-09-23T00:49:27.477Z,4.93
2022-09-23T00:52:12.581Z,5.13
2022-09-23T00:54:40.011Z,5.50
2022-09-23T00:57:08.015Z,5.68
2022-09-23T00:59:37.668Z,5.88
2022-09-23T01:02:05.824Z,5.57
2022-09-23T01:04:33.287Z,6.40
2022-09-23T01:07:00.043Z,6.25
2022-09-23T01:09:27.302Z,5.57
2022-09-23T01:12:26.678Z,5.65
2022-09-23T01:15:11.492Z,5.18
2022-09-23T01:18:21.105Z,5.03
2022-09-23T01:20:56.137Z,5.47
2022-09-23T01:23:54.173Z,6.10
2022-09-23T01:27:13.729Z,6.60
2022-09-23T01:30:09.844Z,6.55
2022-09-23T01:33:08.785Z,6.82
2022-09-23T01:35:59.321Z,6.78
2022-09-23T01:38:50.769Z,6.75
2022-09-23T01:42:00.765Z,6.72
2022-09-23T01:44:39.164Z,6.10
2022-09-23T01:47:35.525Z,6.40
2022-09-23T01:50:40.396Z,7.25
2022-09-23T01:53:15.842Z,5.95
2022-09-23T01:55:50.022Z,6.13
2022-09-23T01:58:27.639Z,6.25
2022-09-23T02:01:21.475Z,6.53
2022-09-23T02:03:59.902Z,7.15
2022-09-23T02:06:58.255Z,5.82
2022-09-23T02:09:33.004Z,5.28
2022-09-23T02:12:06.602Z,5.35
2022-09-23T02:15:04.351Z,5.07
2022-09-23T02:17:43.956Z,5.15
2022-09-23T02:20:20.529Z,4.90
2022-09-23T02:22:56.918Z,4.80
2022-09-23T02:25:39.504Z,5.18
2022-09-23T02:28:17.696Z,3.58
2022-09-23T02:31:01.119Z,4.72
2022-09-23T02:33:55.481Z,4.68
2022-09-23T02:36:49.565Z,4.57
2022-09-23T02:39:20.928Z,5.25
2022-09-23T02:42:02.631Z,5.07
2022-09-23T02:44:29.591Z,5.47
2022-09-23T02:46:56.742Z,5.25
2022-09-23T02:49:35.152Z,5.25
2022-09-23T02:52:07.605Z,6.35
2022-09-23T02:54:36.768Z,6.15
2022-09-23T02:57:06.876Z,6.20
2022-09-23T02:59:35.807Z,5.53
2022-09-23T03:02:24.328Z,7.50
2022-09-23T03:05:19.402Z,5.15
2022-09-23T03:08:18.901Z,5.65
2022-09-23T03:11:08.497Z,7.10
2022-09-23T03:14:20.070Z,6.65
2022-09-23T03:17:15.953Z,6.90
2022-09-23T03:20:07.228Z,6.10
2022-09-23T03:22:40.797Z,5.82
2022-09-23T03:25:15.905Z,7.20
2022-09-23T03:27:47.150Z,8.13
2022-09-23T03:30:14.660Z,5.45
2022-09-23T03:32:47.011Z,5.22
2022-09-23T03:35:14.712Z,4.18
2022-09-23T03:37:51.122Z,5.63
2022-09-23T03:40:35.733Z,6.65
2022-09-23T03:43:04.497Z,5.15
2022-09-23T03:45:33.910Z,5.28
2022-09-23T03:48:01.573Z,5.07
2022-09-23T03:50:28.765Z,4.80
2022-09-23T03:52:55.812Z,5.47
2022-09-23T03:55:22.604Z,5.30
2022-09-23T03:57:49.750Z,5.45
2022-09-23T04:00:16.931Z,5.28
2022-09-23T04:02:44.239Z,5.22
2022-09-23T04:05:14.940Z,4.90
2022-09-23T04:07:42.385Z,4.70
2022-09-23T04:10:10.783Z,5.57
2022-09-23T04:12:38.167Z,11.10
2022-09-23T04:15:05.714Z,6.28
2022-09-23T04:17:32.556Z,5.45
2022-09-23T04:19:59.310Z,5.65
2022-09-23T04:22:26.523Z,5.97
2022-09-23T04:24:53.312Z,5.65
2022-09-23T04:27:20.270Z,7.45
2022-09-23T04:29:47.068Z,6.28
2022-09-23T04:32:13.972Z,6.82
2022-09-23T04:34:41.085Z,6.53
2022-09-23T04:37:08.149Z,5.65
2022-09-23T04:39:34.927Z,7.40
2022-09-23T04:42:01.697Z,6.05
2022-09-23T04:44:29.500Z,5.93
2022-09-23T04:46:56.419Z,6.47
2022-09-23T04:49:23.552Z,5.63
2022-09-23T04:51:51.018Z,6.88
2022-09-23T04:54:18.058Z,5.90
2022-09-23T04:56:44.887Z,6.72
2022-09-23T04:59:11.658Z,5.82
2022-09-23T05:01:38.656Z,6.55
2022-09-23T05:04:10.093Z,5.18
2022-09-23T05:06:36.999Z,6.97
2022-09-23T05:09:07.505Z,8.23
2022-09-23T05:11:35.051Z,6.10
2022-09-23T05:14:02.296Z,5.53
2022-09-23T05:16:29.685Z,6.07
2022-09-23T05:18:57.492Z,5.90
2022-09-23T05:21:28.343Z,6.07
2022-09-23T05:23:58.928Z,6.50
2022-09-23T05:26:30.148Z,5.28
2022-09-23T05:28:59.560Z,7.80
2022-09-23T05:31:29.392Z,5.70
2022-09-23T05:34:05.429Z,6.20
2022-09-23T05:36:38.331Z,6.05
2022-09-23T05:39:08.278Z,6.68
2022-09-23T05:41:35.918Z,6.30
2022-09-23T05:44:02.913Z,6.05
2022-09-23T05:46:31.737Z,7.93
2022-09-23T05:49:02.851Z,5.20
2022-09-23T05:51:34.010Z,5.80
2022-09-23T05:54:03.886Z,6.20
2022-09-23T05:56:32.882Z,6.07
2022-09-23T05:59:02.025Z,7.55
2022-09-23T06:01:33.625Z,9.30
2022-09-23T06:04:04.600Z,7.60
2022-09-23T06:06:37.330Z,7.60
2022-09-23T06:09:05.955Z,6.75
2022-09-23T06:11:35.376Z,7.07
2022-09-23T06:14:03.311Z,7.75
2022-09-23T06:16:34.429Z,8.85
2022-09-23T06:19:07.034Z,7.40
2022-09-23T06:21:38.366Z,8.20
2022-09-23T06:24:06.703Z,6.75
2022-09-23T06:26:35.445Z,8.38
2022-09-23T06:29:04.147Z,8.48
2022-09-23T06:31:31.005Z,7.75
2022-09-23T06:34:07.884Z,8.07
2022-09-23T06:36:44.018Z,6.75
2022-09-23T06:39:15.794Z,5.88
2022-09-23T06:41:43.908Z,6.78
2022-09-23T06:44:11.135Z,6.28
2022-09-23T06:46:37.980Z,7.53
2022-09-23T06:49:04.841Z,6.95
2022-09-23T06:51:33.373Z,6.40
2022-09-23T06:54:00.346Z,8.18
2022-09-23T06:56:27.168Z,8.18
2022-09-23T06:58:54.733Z,17.38
2022-09-23T07:01:22.720Z,7.90
2022-09-23T07:03:49.731Z,8.23
2022-09-23T07:06:17.231Z,7.82
2022-09-23T07:08:47.111Z,6.72
2022-09-23T07:11:15.722Z,6.82
2022-09-23T07:13:43.163Z,6.57
2022-09-23T07:16:11.221Z,6.78
2022-09-23T07:18:39.115Z,7.10
2022-09-23T07:21:17.972Z,7.13
2022-09-23T07:23:50.298Z,6.93
2022-09-23T07:26:19.239Z,6.88
2022-09-23T07:28:46.022Z,7.40
2022-09-23T07:31:23.793Z,9.88
2022-09-23T07:33:58.107Z,9.70
2022-09-23T07:36:28.001Z,7.38
2022-09-23T07:39:00.499Z,5.47
2022-09-23T07:41:31.492Z,7.15
2022-09-23T07:44:00.533Z,6.57
2022-09-23T07:46:33.928Z,8.18
2022-09-23T07:49:02.030Z,9.18
2022-09-23T07:51:36.783Z,7.55
2022-09-23T07:54:07.935Z,7.82
2022-09-23T07:56:36.313Z,8.23
2022-09-23T07:59:04.425Z,7.80
2022-09-23T08:01:39.262Z,8.02
2022-09-23T08:04:12.160Z,7.93
2022-09-23T08:06:51.265Z,8.38
2022-09-23T08:09:21.649Z,7.90
2022-09-23T08:11:49.304Z,8.73
2022-09-23T08:14:18.695Z,11.10
2022-09-23T08:16:47.790Z,9.02
2022-09-23T08:19:15.815Z,8.95
2022-09-23T08:21:44.420Z,9.68
2022-09-23T08:24:19.892Z,9.48
2022-09-23T08:26:48.177Z,9.07
2022-09-23T08:29:19.340Z,11.20
2022-09-23T08:31:49.523Z,11.30
2022-09-23T08:34:19.223Z,14.07
2022-09-23T08:36:47.818Z,12.82
2022-09-23T08:39:20.892Z,11.75
2022-09-23T08:44:45.696Z,9.98
2022-09-23T08:47:46.096Z,10.27
2022-09-23T08:50:24.873Z,11.07
2022-09-23T08:53:35.167Z,10.27
2022-09-23T08:56:10.084Z,10.88
2022-09-23T08:58:55.490Z,10.88
2022-09-23T09:01:36.718Z,10.32
2022-09-23T09:04:12.761Z,10.43
2022-09-23T09:07:24.522Z,9.98
2022-09-23T09:09:58.626Z,11.15
2022-09-23T09:12:50.431Z,10.23
2022-09-23T09:15:29.251Z,9.55
2022-09-23T09:18:19.918Z,10.15
2022-09-23T09:21:11.204Z,8.25
2022-09-23T09:24:12.484Z,7.70
2022-09-23T09:26:40.438Z,8.35
2022-09-23T09:29:41.621Z,9.00
2022-09-23T09:32:19.592Z,8.90
2022-09-23T09:35:03.584Z,8.60
2022-09-23T09:37:41.777Z,7.75
2022-09-23T09:40:13.160Z,8.00
2022-09-23T09:42:42.657Z,7.40
2022-09-23T09:45:19.768Z,7.53
2022-09-23T09:48:03.380Z,6.80
2022-09-23T09:50:52.148Z,6.40
2022-09-23T09:53:35.737Z,5.78
2022-09-23T09:56:16.544Z,4.65
2022-09-23T09:58:49.787Z,4.88
2022-09-23T10:01:26.932Z,4.50
2022-09-23T10:03:59.215Z,8.38
2022-09-23T10:06:33.706Z,5.25
2022-09-23T10:09:15.568Z,4.30
2022-09-23T10:11:42.461Z,3.15
2022-09-23T10:14:18.569Z,3.00
2022-09-23T10:16:50.263Z,3.50
2022-09-23T10:19:29.107Z,2.88
2022-09-23T10:22:04.750Z,3.20
2022-09-23T10:24:36.960Z,3.50
2022-09-23T10:27:08.757Z,2.72
2022-09-23T10:29:48.813Z,2.45
2022-09-23T10:32:40.533Z,2.78
2022-09-23T10:35:08.901Z,2.83
2022-09-23T10:37:41.369Z,2.88
2022-09-23T10:40:56.160Z,2.95
2022-09-23T10:43:44.696Z,2.83
2022-09-23T10:46:39.098Z,2.70
2022-09-23T10:49:45.244Z,2.55
2022-09-23T10:52:39.239Z,2.55
2022-09-23T10:55:28.018Z,2.78
2022-09-23T10:58:48.494Z,2.60
2022-09-23T11:01:48.967Z,2.10
2022-09-23T11:04:41.199Z,2.30
2022-09-23T11:07:14.054Z,2.20
2022-09-23T11:10:45.358Z,2.33
2022-09-23T11:13:30.746Z,2.13
2022-09-23T11:16:03.234Z,2.08
2022-09-23T11:19:05.268Z,2.50
2022-09-23T11:21:49.257Z,2.55
2022-09-23T11:25:06.754Z,2.13
2022-09-23T11:27:45.077Z,2.15
2022-09-23T11:30:21.534Z,2.13
2022-09-23T11:33:14.174Z,1.88
2022-09-23T11:35:55.283Z,2.20
2022-09-23T11:38:46.708Z,1.80
2022-09-23T11:41:25.689Z,2.10
2022-09-23T11:44:23.716Z,2.00
2022-09-23T11:47:05.115Z,2.45
2022-09-23T11:49:39.235Z,2.00
2022-09-23T11:52:30.226Z,1.95
2022-09-23T11:55:35.896Z,2.00
2022-09-23T11:58:25.023Z,1.83
2022-09-23T12:01:07.008Z,1.80
2022-09-23T12:03:48.244Z,2.10
2022-09-23T12:06:22.914Z,2.03
2022-09-23T12:08:59.589Z,1.90
2022-09-23T12:11:42.600Z,1.63
2022-09-23T12:14:45.496Z,2.30
2022-09-23T12:18:00.709Z,2.07
2022-09-23T12:20:59.451Z,2.17
2022-09-23T12:23:46.393Z,1.77
2022-09-23T12:26:19.215Z,2.67
2022-09-23T12:28:50.461Z,2.00
2022-09-23T12:31:22.094Z,2.35
2022-09-23T12:33:52.623Z,1.90
2022-09-23T12:36:35.512Z,1.80
2022-09-23T12:39:07.860Z,2.20
2022-09-23T12:41:40.789Z,2.22
2022-09-23T12:46:38.647Z,1.95
2022-09-23T12:49:21.374Z,2.00
2022-09-23T12:52:16.356Z,2.53
2022-09-23T12:54:49.607Z,1.80
2022-09-23T12:57:34.784Z,2.00
2022-09-23T13:00:12.571Z,2.00
2022-09-23T13:02:47.197Z,2.08
2022-09-23T13:05:37.561Z,2.15
2022-09-23T13:08:25.043Z,2.20
2022-09-23T13:11:00.220Z,2.45
2022-09-23T13:13:31.592Z,2.38
2022-09-23T13:16:22.879Z,2.42
2022-09-23T13:19:25.276Z,2.55
2022-09-23T13:21:59.466Z,2.38
2022-09-23T13:24:28.861Z,2.38
2022-09-23T13:27:06.835Z,1.90
2022-09-23T13:30:04.213Z,2.33
2022-09-23T13:32:49.996Z,2.30
2022-09-23T13:35:26.526Z,2.33
2022-09-23T13:37:53.641Z,2.10
2022-09-23T13:40:24.782Z,2.45
2022-09-23T13:42:59.371Z,2.67
2022-09-23T13:45:28.353Z,2.40
2022-09-23T13:48:10.518Z,2.10
2022-09-23T13:50:40.935Z,2.40
2022-09-23T13:53:11.884Z,1.85
2022-09-23T13:55:41.298Z,2.00
2022-09-23T13:58:23.785Z,2.08
2022-09-23T14:00:51.612Z,2.10
2022-09-23T14:03:35.352Z,2.10
2022-09-23T14:06:16.599Z,2.50
2022-09-23T14:08:50.310Z,2.00
2022-09-23T14:11:22.189Z,2.08
2022-09-23T14:13:54.945Z,2.00
2022-09-23T14:16:28.102Z,2.30
2022-09-23T14:19:00.437Z,2.38
2022-09-23T14:21:40.240Z,2.20
2022-09-23T14:24:25.339Z,2.20
2022-09-23T14:27:06.230Z,2.20
2022-09-23T14:29:37.141Z,2.53
2022-09-23T14:32:13.131Z,2.60
2022-09-23T14:34:59.912Z,2.70
2022-09-23T14:37:56.313Z,2.35
2022-09-23T14:40:29.666Z,2.15
2022-09-23T14:43:23.608Z,2.00
2022-09-23T14:45:57.545Z,1.67
2022-09-23T14:48:29.470Z,1.90
2022-09-23T14:50:59.363Z,1.70
2022-09-23T14:53:36.238Z,1.70
2022-09-23T14:56:40.964Z,1.70
2022-09-23T14:59:35.475Z,4.22
2022-09-23T15:02:31.142Z,2.00
2022-09-23T15:05:40.215Z,2.17
2022-09-23T15:08:17.780Z,1.67
2022-09-23T15:10:46.139Z,1.73
2022-09-23T15:13:18.611Z,1.90
2022-09-23T15:15:46.197Z,2.10
2022-09-23T15:18:38.562Z,1.65
2022-09-23T15:21:16.621Z,1.83
2022-09-23T15:23:55.338Z,1.40
2022-09-23T15:26:41.397Z,1.35
2022-09-23T15:29:12.658Z,1.67
2022-09-23T15:31:39.539Z,1.80
2022-09-23T15:34:06.584Z,1.70
2022-09-23T15:36:33.979Z,1.95
2022-09-23T15:39:06.662Z,1.98
2022-09-23T15:41:33.939Z,2.22
2022-09-23T15:44:21.750Z,2.20
2022-09-23T15:46:51.840Z,2.67
2022-09-23T15:49:41.949Z,2.15
2022-09-23T15:52:10.613Z,2.13
2022-09-23T15:54:37.875Z,2.10
2022-09-23T15:57:06.134Z,2.10
2022-09-23T15:59:33.040Z,2.05
2022-09-23T16:02:06.060Z,2.30
2022-09-23T16:07:01.635Z,3.40
2022-09-23T16:09:31.562Z,3.55
2022-09-23T16:11:58.435Z,8.25
2022-09-23T16:14:25.309Z,10.52
2022-09-23T16:16:52.195Z,8.45
2022-09-23T16:19:19.085Z,5.93
2022-09-23T16:21:46.045Z,4.88
2022-09-23T16:24:18.076Z,3.40
2022-09-23T16:26:47.436Z,3.03
2022-09-23T16:29:14.743Z,3.33
2022-09-23T16:31:41.843Z,3.95
2022-09-23T16:34:08.978Z,6.53
2022-09-23T16:36:42.346Z,7.03
2022-09-23T16:39:13.334Z,7.03
2022-09-23T16:41:41.042Z,7.88
2022-09-23T16:44:10.515Z,7.00
2022-09-23T16:46:37.389Z,7.00
2022-09-23T16:49:04.496Z,6.93
2022-09-23T16:51:38.458Z,5.50
2022-09-23T16:54:10.174Z,4.78
2022-09-23T16:56:44.955Z,4.35
2022-09-23T16:59:13.702Z,4.68
2022-09-23T17:01:59.221Z,7.18
2022-09-23T17:04:27.567Z,7.18
2022-09-23T17:06:54.876Z,6.95
2022-09-23T17:09:28.481Z,6.90
2022-09-23T17:12:15.566Z,6.30
2022-09-23T17:14:43.678Z,6.22
2022-09-23T17:17:10.525Z,6.65
2022-09-23T17:19:41.262Z,6.63
2022-09-23T17:22:08.073Z,7.05
2022-09-23T17:24:36.112Z,5.50
2022-09-23T17:27:02.982Z,5.05
2022-09-23T17:29:30.296Z,3.83
2022-09-23T17:31:57.850Z,4.22
2022-09-23T17:34:25.072Z,3.33
2022-09-23T17:36:51.844Z,3.75
2022-09-23T17:39:18.711Z,3.95
2022-09-23T17:41:45.579Z,4.90
2022-09-23T17:44:16.049Z,4.85
2022-09-23T17:46:43.547Z,6.10
2022-09-23T17:49:11.285Z,5.78
2022-09-23T17:51:38.136Z,6.20
2022-09-23T17:54:06.424Z,6.40
2022-09-23T17:56:34.146Z,6.60
2022-09-23T17:59:02.025Z,7.28
2022-09-23T18:01:29.739Z,7.82
2022-09-23T18:04:01.803Z,5.75
2022-09-23T18:06:31.870Z,5.20
2022-09-23T18:09:04.411Z,5.35
2022-09-23T18:11:41.325Z,6.75
2022-09-23T18:14:20.874Z,5.55
2022-09-23T18:16:51.792Z,6.25
2022-09-23T18:19:21.816Z,7.85
2022-09-23T18:21:52.470Z,11.20
2022-09-23T18:24:35.319Z,14.45
2022-09-23T18:27:02.357Z,9.27
2022-09-23T18:29:29.608Z,8.40
2022-09-23T18:31:56.581Z,7.00
2022-09-23T18:34:24.294Z,6.60
2022-09-23T18:36:51.456Z,6.47
2022-09-23T18:39:18.407Z,5.97
2022-09-23T18:41:45.341Z,6.10
2022-09-23T18:44:12.619Z,5.82
2022-09-23T18:46:39.444Z,6.28
2022-09-23T18:49:25.089Z,5.82
2022-09-23T18:51:55.767Z,5.57
2022-09-23T18:54:28.712Z,5.88
2022-09-23T18:56:57.425Z,5.70
2022-09-23T18:59:29.543Z,5.47
2022-09-23T19:01:57.254Z,5.35
2022-09-23T19:04:26.220Z,5.68
2022-09-23T19:06:56.232Z,5.07
2022-09-23T19:09:23.522Z,4.65
2022-09-23T19:11:52.538Z,5.10
2022-09-23T19:14:19.981Z,5.40
2022-09-23T19:16:49.024Z,4.82
2022-09-23T19:19:18.360Z,5.20
2022-09-23T19:21:45.717Z,5.15
2022-09-23T19:24:15.981Z,4.88
2022-09-23T19:26:44.217Z,4.68
2022-09-23T19:29:16.865Z,4.70
2022-09-23T19:31:44.117Z,5.00
2022-09-23T19:34:29.209Z,4.75
2022-09-23T19:36:57.703Z,5.30
2022-09-23T19:39:28.357Z,5.22
2022-09-23T19:41:56.080Z,5.10
2022-09-23T19:44:25.076Z,5.10
2022-09-23T19:46:56.361Z,5.32
2022-09-23T19:49:25.879Z,5.67
2022-09-23T19:51:55.427Z,5.40
2022-09-23T19:54:24.482Z,5.22
2022-09-23T19:56:51.681Z,4.85
2022-09-23T19:59:19.470Z,5.07
2022-09-23T20:01:48.405Z,4.55
2022-09-23T20:04:16.621Z,5.07
2022-09-23T20:06:43.626Z,5.03
2022-09-23T20:09:10.654Z,4.78
2022-09-23T20:11:38.031Z,4.57
2022-09-23T20:14:06.223Z,4.53
2022-09-23T20:16:36.963Z,4.05
2022-09-23T20:19:05.609Z,4.45
2022-09-23T20:21:33.846Z,4.70
2022-09-23T20:24:02.077Z,4.13
2022-09-23T20:26:47.523Z,4.18
2022-09-23T20:29:15.403Z,4.20
2022-09-23T20:31:42.493Z,4.35
2022-09-23T20:34:12.271Z,4.03
2022-09-23T20:36:41.694Z,3.90
2022-09-23T20:39:10.541Z,4.20
2022-09-23T20:41:39.608Z,4.35
2022-09-23T20:44:12.191Z,3.88
2022-09-23T20:46:45.314Z,4.47
2022-09-23T20:49:15.735Z,3.92
2022-09-23T20:51:42.688Z,4.40
2022-09-23T20:54:09.570Z,4.55
2022-09-23T20:56:36.435Z,4.30
2022-09-23T20:59:05.073Z,4.22
2022-09-23T21:01:37.028Z,4.25
2022-09-23T21:04:05.717Z,4.07
2022-09-23T21:06:36.543Z,3.90
2022-09-23T21:09:04.700Z,3.58
2022-09-23T21:11:32.169Z,3.80
2022-09-23T21:14:00.456Z,3.83
2022-09-23T21:16:27.650Z,4.00
2022-09-23T21:18:54.522Z,4.18
2022-09-23T21:21:22.678Z,4.00
2022-09-23T21:23:50.760Z,4.35
2022-09-23T21:26:21.616Z,4.13
2022-09-23T21:28:51.569Z,4.03
2022-09-23T21:31:25.847Z,4.47
2022-09-23T21:33:52.978Z,4.03
2022-09-23T21:36:20.170Z,3.85
2022-09-23T21:38:47.144Z,4.10
2022-09-23T21:41:13.963Z,4.40
2022-09-23T21:43:41.404Z,4.65
2022-09-23T21:46:13.456Z,4.30
2022-09-23T21:48:42.323Z,4.10
2022-09-23T21:51:15.261Z,4.30
2022-09-23T21:53:43.368Z,4.15
2022-09-23T21:56:20.425Z,3.42
2022-09-23T21:58:48.444Z,3.67
2022-09-23T22:01:22.856Z,3.70
2022-09-23T22:03:59.563Z,3.47
2022-09-23T22:06:28.759Z,3.35
2022-09-23T22:09:02.047Z,3.50
2022-09-23T22:11:51.874Z,3.75
2022-09-23T22:14:23.378Z,4.25
2022-09-23T22:16:50.590Z,3.50
2022-09-23T22:19:17.739Z,3.85
2022-09-23T22:21:45.618Z,3.50
2022-09-23T22:24:13.176Z,4.00
2022-09-23T22:26:42.662Z,3.58
2022-09-23T22:29:32.381Z,4.10
2022-09-23T22:32:20.150Z,3.58
2022-09-23T22:34:52.598Z,3.92
2022-09-23T22:37:25.664Z,3.90
2022-09-23T22:39:53.401Z,3.97
2022-09-23T22:42:23.727Z,3.40
2022-09-23T22:44:51.797Z,3.90
2022-09-23T22:47:20.454Z,3.10
2022-09-23T22:49:48.493Z,3.97
2022-09-23T22:52:21.024Z,3.50
2022-09-23T22:54:48.070Z,3.85
2022-09-23T22:57:15.458Z,4.90
2022-09-23T22:59:43.866Z,4.50
2022-09-23T23:02:10.797Z,4.13
2022-09-23T23:04:37.658Z,4.30
2022-09-23T23:07:06.543Z,4.03
2022-09-23T23:09:33.317Z,4.30
2022-09-23T23:12:00.468Z,4.30
2022-09-23T23:14:27.890Z,4.00
2022-09-23T23:16:55.057Z,4.10
2022-09-23T23:19:23.506Z,4.07
2022-09-23T23:21:53.358Z,4.55
2022-09-23T23:24:23.177Z,3.90
2022-09-23T23:26:51.519Z,4.60
2022-09-23T23:29:21.040Z,4.10
2022-09-23T23:31:48.852Z,4.00
2022-09-23T23:34:19.162Z,3.83
2022-09-23T23:36:54.467Z,3.80
2022-09-23T23:39:26.333Z,4.05
2022-09-23T23:41:58.383Z,4.40
2022-09-23T23:44:26.773Z,2.92
2022-09-23T23:46:55.005Z,3.90
2022-09-23T23:49:22.385Z,4.32
2022-09-23T23:51:49.605Z,4.30
2022-09-23T23:54:16.765Z,4.20
2022-09-23T23:56:43.712Z,4.20
2022-09-23T23:59:11.269Z,4.20
